sensor_id;sensor_type;location;lat;lon;timestamp;temperature;humidity
5779;DHT22;2916;49.798;10.022;2023-01-05T00:01:29;10.20;99.90
5779;DHT22;2916;49.798;10.022;2023-01-05T00:03:56;10.30;99.90
5779;DHT22;2916;49.798;10.022;2023-01-05T00:06:23;10.20;99.90
5779;DHT22;2916;49.798;10.022;2023-01-05T00:08:50;10.20;99.90
5779;DHT22;2916;49.798;10.022;2023-01-05T00:11:18;10.20;99.90
5779;DHT22;2916;49.798;10.022;2023-01-05T00:14:05;10.30;99.90
5779;DHT22;2916;49.798;10.022;2023-01-05T00:16:49;10.20;99.90
5779;DHT22;2916;49.798;10.022;2023-01-05T00:19:34;10.20;99.90
5779;DHT22;2916;49.798;10.022;2023-01-05T00:22:19;10.20;99.90
5779;DHT22;2916;49.798;10.022;2023-01-05T00:24:56;10.20;99.90
5779;DHT22;2916;49.798;10.022;2023-01-05T00:27:23;10.20;99.90
5779;DHT22;2916;49.798;10.022;2023-01-05T00:29:51;10.20;99.90
5779;DHT22;2916;49.798;10.022;2023-01-05T00:32:19;10.20;99.90
5779;DHT22;2916;49.798;10.022;2023-01-05T00:34:46;10.20;99.90
5779;DHT22;2916;49.798;10.022;2023-01-05T00:37:13;10.20;99.90
5779;DHT22;2916;49.798;10.022;2023-01-05T00:39:40;10.20;99.90
5779;DHT22;2916;49.798;10.022;2023-01-05T00:42:07;10.30;99.90
5779;DHT22;2916;49.798;10.022;2023-01-05T00:44:34;10.20;99.90
5779;DHT22;2916;49.798;10.022;2023-01-05T00:47:02;10.30;99.90
5779;DHT22;2916;49.798;10.022;2023-01-05T00:49:29;10.20;99.90
5779;DHT22;2916;49.798;10.022;2023-01-05T00:51:56;10.20;99.90
5779;DHT22;2916;49.798;10.022;2023-01-05T00:54:24;10.20;99.90
5779;DHT22;2916;49.798;10.022;2023-01-05T00:56:51;10.20;99.90
5779;DHT22;2916;49.798;10.022;2023-01-05T00:59:18;10.20;99.90
5779;DHT22;2916;49.798;10.022;2023-01-05T01:01:45;10.20;99.90
5779;DHT22;2916;49.798;10.022;2023-01-05T01:04:13;10.30;99.90
5779;DHT22;2916;49.798;10.022;2023-01-05T01:06:41;10.30;99.90
5779;DHT22;2916;49.798;10.022;2023-01-05T01:09:08;10.40;99.90
5779;DHT22;2916;49.798;10.022;2023-01-05T01:11:36;10.30;99.90
5779;DHT22;2916;49.798;10.022;2023-01-05T01:14:03;10.40;99.90
5779;DHT22;2916;49.798;10.022;2023-01-05T01:16:30;10.40;99.90
5779;DHT22;2916;49.798;10.022;2023-01-05T01:18:57;10.40;99.90
5779;DHT22;2916;49.798;10.022;2023-01-05T01:21:26;10.30;99.90
5779;DHT22;2916;49.798;10.022;2023-01-05T01:23:52;10.30;99.90
5779;DHT22;2916;49.798;10.022;2023-01-05T01:26:20;10.30;99.90
5779;DHT22;2916;49.798;10.022;2023-01-05T01:28:47;10.40;99.90
5779;DHT22;2916;49.798;10.022;2023-01-05T01:31:14;10.40;99.90
5779;DHT22;2916;49.798;10.022;2023-01-05T01:33:41;10.40;99.90
5779;DHT22;2916;49.798;10.022;2023-01-05T01:36:09;10.30;99.90
5779;DHT22;2916;49.798;10.022;2023-01-05T01:38:37;10.30;99.90
5779;DHT22;2916;49.798;10.022;2023-01-05T01:41:04;10.40;99.90
5779;DHT22;2916;49.798;10.022;2023-01-05T01:43:43;10.40;99.90
5779;DHT22;2916;49.798;10.022;2023-01-05T01:46:11;10.40;99.90
5779;DHT22;2916;49.798;10.022;2023-01-05T01:48:41;10.40;99.90
5779;DHT22;2916;49.798;10.022;2023-01-05T01:51:12;10.40;99.90
5779;DHT22;2916;49.798;10.022;2023-01-05T01:53:44;10.30;99.90
5779;DHT22;2916;49.798;10.022;2023-01-05T01:56:15;10.40;99.90
5779;DHT22;2916;49.798;10.022;2023-01-05T01:58:44;10.40;99.90
5779;DHT22;2916;49.798;10.022;2023-01-05T02:01:11;10.40;99.90
5779;DHT22;2916;49.798;10.022;2023-01-05T02:03:39;10.40;99.90
5779;DHT22;2916;49.798;10.022;2023-01-05T02:06:07;10.40;99.90
5779;DHT22;2916;49.798;10.022;2023-01-05T02:08:34;10.40;99.90
5779;DHT22;2916;49.798;10.022;2023-01-05T02:11:15;10.40;99.90
5779;DHT22;2916;49.798;10.022;2023-01-05T02:13:55;10.40;99.90
5779;DHT22;2916;49.798;10.022;2023-01-05T02:16:33;10.40;99.90
5779;DHT22;2916;49.798;10.022;2023-01-05T02:19:29;10.50;99.90
5779;DHT22;2916;49.798;10.022;2023-01-05T02:22:11;10.40;99.90
5779;DHT22;2916;49.798;10.022;2023-01-05T02:25:03;10.40;99.90
5779;DHT22;2916;49.798;10.022;2023-01-05T02:27:44;10.50;99.90
5779;DHT22;2916;49.798;10.022;2023-01-05T02:30:43;10.50;99.90
5779;DHT22;2916;49.798;10.022;2023-01-05T02:33:21;10.50;99.90
5779;DHT22;2916;49.798;10.022;2023-01-05T02:35:56;10.50;99.90
5779;DHT22;2916;49.798;10.022;2023-01-05T02:38:29;10.50;99.90
5779;DHT22;2916;49.798;10.022;2023-01-05T02:41:04;10.50;99.90
5779;DHT22;2916;49.798;10.022;2023-01-05T02:43:33;10.50;99.90
5779;DHT22;2916;49.798;10.022;2023-01-05T02:46:01;10.50;99.90
5779;DHT22;2916;49.798;10.022;2023-01-05T02:48:28;10.50;99.90
5779;DHT22;2916;49.798;10.022;2023-01-05T02:50:57;10.50;99.90
5779;DHT22;2916;49.798;10.022;2023-01-05T02:53:28;10.40;99.90
5779;DHT22;2916;49.798;10.022;2023-01-05T02:56:01;10.50;99.90
5779;DHT22;2916;49.798;10.022;2023-01-05T02:58:34;10.40;99.90
5779;DHT22;2916;49.798;10.022;2023-01-05T03:01:07;10.50;99.90
5779;DHT22;2916;49.798;10.022;2023-01-05T03:03:37;10.50;99.90
5779;DHT22;2916;49.798;10.022;2023-01-05T03:06:11;10.50;99.90
5779;DHT22;2916;49.798;10.022;2023-01-05T03:08:46;10.50;99.90
5779;DHT22;2916;49.798;10.022;2023-01-05T03:11:14;10.50;99.90
5779;DHT22;2916;49.798;10.022;2023-01-05T03:14:04;10.60;99.90
5779;DHT22;2916;49.798;10.022;2023-01-05T03:16:36;10.50;99.90
5779;DHT22;2916;49.798;10.022;2023-01-05T03:19:07;10.50;99.90
5779;DHT22;2916;49.798;10.022;2023-01-05T03:21:54;10.50;99.90
5779;DHT22;2916;49.798;10.022;2023-01-05T03:24:39;10.60;99.90
5779;DHT22;2916;49.798;10.022;2023-01-05T03:27:25;10.60;99.90
5779;DHT22;2916;49.798;10.022;2023-01-05T03:30:10;10.60;99.90
5779;DHT22;2916;49.798;10.022;2023-01-05T03:33:02;10.50;99.90
5779;DHT22;2916;49.798;10.022;2023-01-05T03:35:50;10.60;99.90
5779;DHT22;2916;49.798;10.022;2023-01-05T03:38:23;10.60;99.90
5779;DHT22;2916;49.798;10.022;2023-01-05T03:40:56;10.60;99.90
5779;DHT22;2916;49.798;10.022;2023-01-05T03:43:24;10.60;99.90
5779;DHT22;2916;49.798;10.022;2023-01-05T03:45:53;10.60;99.90
5779;DHT22;2916;49.798;10.022;2023-01-05T03:48:23;10.60;99.90
5779;DHT22;2916;49.798;10.022;2023-01-05T03:50:50;10.60;99.90
5779;DHT22;2916;49.798;10.022;2023-01-05T03:53:17;10.60;99.90
5779;DHT22;2916;49.798;10.022;2023-01-05T03:55:44;10.70;99.90
5779;DHT22;2916;49.798;10.022;2023-01-05T03:58:11;10.70;99.90
5779;DHT22;2916;49.798;10.022;2023-01-05T04:00:38;10.60;99.90
5779;DHT22;2916;49.798;10.022;2023-01-05T04:03:05;10.70;99.90
5779;DHT22;2916;49.798;10.022;2023-01-05T04:05:36;10.70;99.90
5779;DHT22;2916;49.798;10.022;2023-01-05T04:08:04;10.70;99.90
5779;DHT22;2916;49.798;10.022;2023-01-05T04:10:31;10.70;99.90
5779;DHT22;2916;49.798;10.022;2023-01-05T04:12:58;10.60;99.90
5779;DHT22;2916;49.798;10.022;2023-01-05T04:15:25;10.70;99.90
5779;DHT22;2916;49.798;10.022;2023-01-05T04:17:52;10.70;99.90
5779;DHT22;2916;49.798;10.022;2023-01-05T04:20:19;10.70;99.90
5779;DHT22;2916;49.798;10.022;2023-01-05T04:22:47;10.60;99.90
5779;DHT22;2916;49.798;10.022;2023-01-05T04:25:14;10.60;99.90
5779;DHT22;2916;49.798;10.022;2023-01-05T04:27:41;10.60;99.90
5779;DHT22;2916;49.798;10.022;2023-01-05T04:30:09;10.70;99.90
5779;DHT22;2916;49.798;10.022;2023-01-05T04:32:37;10.60;99.90
5779;DHT22;2916;49.798;10.022;2023-01-05T04:35:04;10.60;99.90
5779;DHT22;2916;49.798;10.022;2023-01-05T04:37:31;10.60;99.90
5779;DHT22;2916;49.798;10.022;2023-01-05T04:40:00;10.60;99.90
5779;DHT22;2916;49.798;10.022;2023-01-05T04:42:27;10.60;99.90
5779;DHT22;2916;49.798;10.022;2023-01-05T04:44:54;10.60;99.90
5779;DHT22;2916;49.798;10.022;2023-01-05T04:47:21;10.60;99.90
5779;DHT22;2916;49.798;10.022;2023-01-05T04:49:48;10.70;99.90
5779;DHT22;2916;49.798;10.022;2023-01-05T04:52:15;10.50;99.90
5779;DHT22;2916;49.798;10.022;2023-01-05T04:54:42;10.50;99.90
5779;DHT22;2916;49.798;10.022;2023-01-05T04:57:10;10.50;99.90
5779;DHT22;2916;49.798;10.022;2023-01-05T04:59:37;10.50;99.90
5779;DHT22;2916;49.798;10.022;2023-01-05T05:02:04;10.50;99.90
5779;DHT22;2916;49.798;10.022;2023-01-05T05:04:31;10.50;99.90
5779;DHT22;2916;49.798;10.022;2023-01-05T05:06:58;10.40;99.90
5779;DHT22;2916;49.798;10.022;2023-01-05T05:09:25;10.40;99.90
5779;DHT22;2916;49.798;10.022;2023-01-05T05:11:52;10.40;99.90
5779;DHT22;2916;49.798;10.022;2023-01-05T05:14:20;10.30;99.90
5779;DHT22;2916;49.798;10.022;2023-01-05T05:16:47;10.30;99.90
5779;DHT22;2916;49.798;10.022;2023-01-05T05:19:14;10.30;99.90
5779;DHT22;2916;49.798;10.022;2023-01-05T05:21:41;10.30;99.90
5779;DHT22;2916;49.798;10.022;2023-01-05T05:24:08;10.40;99.90
5779;DHT22;2916;49.798;10.022;2023-01-05T05:26:35;10.30;99.90
5779;DHT22;2916;49.798;10.022;2023-01-05T05:29:02;10.30;99.90
5779;DHT22;2916;49.798;10.022;2023-01-05T05:31:30;10.30;99.90
5779;DHT22;2916;49.798;10.022;2023-01-05T05:33:57;10.20;99.90
5779;DHT22;2916;49.798;10.022;2023-01-05T05:36:24;10.30;99.90
5779;DHT22;2916;49.798;10.022;2023-01-05T05:38:51;10.30;99.90
5779;DHT22;2916;49.798;10.022;2023-01-05T05:41:18;10.20;99.90
5779;DHT22;2916;49.798;10.022;2023-01-05T05:43:45;10.20;99.90
5779;DHT22;2916;49.798;10.022;2023-01-05T05:46:12;10.20;99.90
5779;DHT22;2916;49.798;10.022;2023-01-05T05:48:41;10.20;99.90
5779;DHT22;2916;49.798;10.022;2023-01-05T05:51:08;10.10;99.90
5779;DHT22;2916;49.798;10.022;2023-01-05T05:53:35;10.10;99.90
5779;DHT22;2916;49.798;10.022;2023-01-05T05:56:02;10.10;99.90
5779;DHT22;2916;49.798;10.022;2023-01-05T05:58:29;10.10;99.90
5779;DHT22;2916;49.798;10.022;2023-01-05T06:00:57;10.10;99.90
5779;DHT22;2916;49.798;10.022;2023-01-05T06:03:24;10.10;99.90
5779;DHT22;2916;49.798;10.022;2023-01-05T06:05:53;10.10;99.90
5779;DHT22;2916;49.798;10.022;2023-01-05T06:08:20;10.10;99.90
5779;DHT22;2916;49.798;10.022;2023-01-05T06:10:49;10.10;99.90
5779;DHT22;2916;49.798;10.022;2023-01-05T06:13:16;10.10;99.90
5779;DHT22;2916;49.798;10.022;2023-01-05T06:15:43;10.10;99.90
5779;DHT22;2916;49.798;10.022;2023-01-05T06:18:11;10.10;99.90
5779;DHT22;2916;49.798;10.022;2023-01-05T06:20:38;10.10;99.90
5779;DHT22;2916;49.798;10.022;2023-01-05T06:23:07;10.10;99.90
5779;DHT22;2916;49.798;10.022;2023-01-05T06:25:34;10.20;99.90
5779;DHT22;2916;49.798;10.022;2023-01-05T06:28:01;10.10;99.90
5779;DHT22;2916;49.798;10.022;2023-01-05T06:30:28;10.10;99.90
5779;DHT22;2916;49.798;10.022;2023-01-05T06:32:55;10.10;99.90
5779;DHT22;2916;49.798;10.022;2023-01-05T06:35:22;10.10;99.90
5779;DHT22;2916;49.798;10.022;2023-01-05T06:37:49;10.10;99.90
5779;DHT22;2916;49.798;10.022;2023-01-05T06:40:18;10.00;99.90
5779;DHT22;2916;49.798;10.022;2023-01-05T06:42:45;10.10;99.90
5779;DHT22;2916;49.798;10.022;2023-01-05T06:45:14;10.00;99.90
5779;DHT22;2916;49.798;10.022;2023-01-05T06:47:41;10.10;99.90
5779;DHT22;2916;49.798;10.022;2023-01-05T06:50:09;10.10;99.90
5779;DHT22;2916;49.798;10.022;2023-01-05T06:52:36;10.00;99.90
5779;DHT22;2916;49.798;10.022;2023-01-05T06:55:05;10.10;99.90
5779;DHT22;2916;49.798;10.022;2023-01-05T06:57:34;10.10;99.90
5779;DHT22;2916;49.798;10.022;2023-01-05T07:00:03;10.10;99.90
5779;DHT22;2916;49.798;10.022;2023-01-05T07:02:31;10.00;99.90
5779;DHT22;2916;49.798;10.022;2023-01-05T07:04:58;10.00;99.90
5779;DHT22;2916;49.798;10.022;2023-01-05T07:07:25;10.00;99.90
5779;DHT22;2916;49.798;10.022;2023-01-05T07:09:52;10.10;99.90
5779;DHT22;2916;49.798;10.022;2023-01-05T07:12:19;10.00;99.90
5779;DHT22;2916;49.798;10.022;2023-01-05T07:14:48;9.90;99.90
5779;DHT22;2916;49.798;10.022;2023-01-05T07:17:15;9.90;99.90
5779;DHT22;2916;49.798;10.022;2023-01-05T07:19:42;9.90;99.90
5779;DHT22;2916;49.798;10.022;2023-01-05T07:22:09;9.90;99.90
5779;DHT22;2916;49.798;10.022;2023-01-05T07:24:36;9.90;99.90
5779;DHT22;2916;49.798;10.022;2023-01-05T07:27:03;9.90;99.90
5779;DHT22;2916;49.798;10.022;2023-01-05T07:29:30;9.90;99.90
5779;DHT22;2916;49.798;10.022;2023-01-05T07:31:58;9.90;99.90
5779;DHT22;2916;49.798;10.022;2023-01-05T07:34:25;9.80;99.90
5779;DHT22;2916;49.798;10.022;2023-01-05T07:36:52;9.80;99.90
5779;DHT22;2916;49.798;10.022;2023-01-05T07:39:19;9.80;99.90
5779;DHT22;2916;49.798;10.022;2023-01-05T07:41:46;9.70;99.90
5779;DHT22;2916;49.798;10.022;2023-01-05T07:44:13;9.70;99.90
5779;DHT22;2916;49.798;10.022;2023-01-05T07:46:40;9.70;99.90
5779;DHT22;2916;49.798;10.022;2023-01-05T07:49:08;9.70;99.90
5779;DHT22;2916;49.798;10.022;2023-01-05T07:51:35;9.70;99.90
5779;DHT22;2916;49.798;10.022;2023-01-05T07:54:02;9.70;99.90
5779;DHT22;2916;49.798;10.022;2023-01-05T07:56:29;9.70;99.90
5779;DHT22;2916;49.798;10.022;2023-01-05T07:58:56;9.70;99.90
5779;DHT22;2916;49.798;10.022;2023-01-05T08:01:23;9.70;99.90
5779;DHT22;2916;49.798;10.022;2023-01-05T08:03:50;9.80;99.90
5779;DHT22;2916;49.798;10.022;2023-01-05T08:06:19;9.70;99.90
5779;DHT22;2916;49.798;10.022;2023-01-05T08:08:46;9.80;99.90
5779;DHT22;2916;49.798;10.022;2023-01-05T08:11:15;9.80;99.90
5779;DHT22;2916;49.798;10.022;2023-01-05T08:13:43;9.70;99.90
5779;DHT22;2916;49.798;10.022;2023-01-05T08:16:27;9.80;99.90
5779;DHT22;2916;49.798;10.022;2023-01-05T08:18:54;9.80;99.90
5779;DHT22;2916;49.798;10.022;2023-01-05T08:21:22;9.80;99.90
5779;DHT22;2916;49.798;10.022;2023-01-05T08:23:49;9.90;99.90
5779;DHT22;2916;49.798;10.022;2023-01-05T08:26:19;9.90;99.90
5779;DHT22;2916;49.798;10.022;2023-01-05T08:28:47;9.90;99.90
5779;DHT22;2916;49.798;10.022;2023-01-05T08:31:16;9.90;99.90
5779;DHT22;2916;49.798;10.022;2023-01-05T08:33:43;9.90;99.90
5779;DHT22;2916;49.798;10.022;2023-01-05T08:36:12;9.90;99.90
5779;DHT22;2916;49.798;10.022;2023-01-05T08:38:41;9.90;99.90
5779;DHT22;2916;49.798;10.022;2023-01-05T08:41:14;9.90;99.90
5779;DHT22;2916;49.798;10.022;2023-01-05T08:43:41;9.90;99.90
5779;DHT22;2916;49.798;10.022;2023-01-05T08:46:08;9.90;99.90
5779;DHT22;2916;49.798;10.022;2023-01-05T08:48:35;10.00;99.90
5779;DHT22;2916;49.798;10.022;2023-01-05T08:51:02;10.00;99.90
5779;DHT22;2916;49.798;10.022;2023-01-05T08:53:31;10.00;99.90
5779;DHT22;2916;49.798;10.022;2023-01-05T08:56:00;10.10;99.90
5779;DHT22;2916;49.798;10.022;2023-01-05T08:58:27;10.10;99.90
5779;DHT22;2916;49.798;10.022;2023-01-05T09:00:54;10.20;99.90
5779;DHT22;2916;49.798;10.022;2023-01-05T09:03:21;10.20;99.90
5779;DHT22;2916;49.798;10.022;2023-01-05T09:05:51;10.20;99.90
5779;DHT22;2916;49.798;10.022;2023-01-05T09:08:18;10.20;99.90
5779;DHT22;2916;49.798;10.022;2023-01-05T09:10:45;10.30;99.90
5779;DHT22;2916;49.798;10.022;2023-01-05T09:13:14;10.30;99.90
5779;DHT22;2916;49.798;10.022;2023-01-05T09:15:40;10.30;99.90
5779;DHT22;2916;49.798;10.022;2023-01-05T09:18:07;10.30;99.90
5779;DHT22;2916;49.798;10.022;2023-01-05T09:20:34;10.40;99.90
5779;DHT22;2916;49.798;10.022;2023-01-05T09:23:01;10.30;99.90
5779;DHT22;2916;49.798;10.022;2023-01-05T09:25:28;10.30;99.90
5779;DHT22;2916;49.798;10.022;2023-01-05T09:27:55;10.40;99.90
5779;DHT22;2916;49.798;10.022;2023-01-05T09:30:23;10.40;99.90
5779;DHT22;2916;49.798;10.022;2023-01-05T09:32:50;10.40;99.90
5779;DHT22;2916;49.798;10.022;2023-01-05T09:35:17;10.30;99.90
5779;DHT22;2916;49.798;10.022;2023-01-05T09:37:44;10.30;99.90
5779;DHT22;2916;49.798;10.022;2023-01-05T09:40:11;10.30;99.90
5779;DHT22;2916;49.798;10.022;2023-01-05T09:42:42;10.30;99.90
5779;DHT22;2916;49.798;10.022;2023-01-05T09:45:11;10.40;99.90
5779;DHT22;2916;49.798;10.022;2023-01-05T09:47:41;10.40;99.90
5779;DHT22;2916;49.798;10.022;2023-01-05T09:50:18;10.50;99.90
5779;DHT22;2916;49.798;10.022;2023-01-05T09:52:46;10.60;99.90
5779;DHT22;2916;49.798;10.022;2023-01-05T09:55:14;10.70;99.90
5779;DHT22;2916;49.798;10.022;2023-01-05T09:57:48;10.70;99.90
5779;DHT22;2916;49.798;10.022;2023-01-05T10:00:17;10.80;99.90
5779;DHT22;2916;49.798;10.022;2023-01-05T10:02:50;10.70;99.90
5779;DHT22;2916;49.798;10.022;2023-01-05T10:05:18;10.80;99.90
5779;DHT22;2916;49.798;10.022;2023-01-05T10:07:50;10.80;99.90
5779;DHT22;2916;49.798;10.022;2023-01-05T10:10:26;10.80;99.90
5779;DHT22;2916;49.798;10.022;2023-01-05T10:12:59;10.70;99.90
5779;DHT22;2916;49.798;10.022;2023-01-05T10:15:33;10.90;99.90
5779;DHT22;2916;49.798;10.022;2023-01-05T10:18:08;11.00;99.90
5779;DHT22;2916;49.798;10.022;2023-01-05T10:20:47;11.00;99.90
5779;DHT22;2916;49.798;10.022;2023-01-05T10:23:30;11.00;99.90
5779;DHT22;2916;49.798;10.022;2023-01-05T10:26:03;10.90;99.90
5779;DHT22;2916;49.798;10.022;2023-01-05T10:28:36;10.90;99.90
5779;DHT22;2916;49.798;10.022;2023-01-05T10:31:13;10.90;99.90
5779;DHT22;2916;49.798;10.022;2023-01-05T10:33:49;10.90;99.90
5779;DHT22;2916;49.798;10.022;2023-01-05T10:39:09;11.00;99.90
5779;DHT22;2916;49.798;10.022;2023-01-05T10:41:48;11.00;99.90
5779;DHT22;2916;49.798;10.022;2023-01-05T10:44:43;11.00;99.90
5779;DHT22;2916;49.798;10.022;2023-01-05T10:47:12;11.00;99.90
5779;DHT22;2916;49.798;10.022;2023-01-05T10:49:44;11.00;99.90
5779;DHT22;2916;49.798;10.022;2023-01-05T10:52:14;11.00;99.90
5779;DHT22;2916;49.798;10.022;2023-01-05T10:54:44;11.00;99.90
5779;DHT22;2916;49.798;10.022;2023-01-05T10:57:33;11.00;99.90
5779;DHT22;2916;49.798;10.022;2023-01-05T11:00:02;11.00;99.90
5779;DHT22;2916;49.798;10.022;2023-01-05T11:02:32;11.00;99.90
5779;DHT22;2916;49.798;10.022;2023-01-05T11:05:05;11.00;99.90
5779;DHT22;2916;49.798;10.022;2023-01-05T11:07:45;11.10;99.90
5779;DHT22;2916;49.798;10.022;2023-01-05T11:10:22;11.10;99.90
5779;DHT22;2916;49.798;10.022;2023-01-05T11:12:51;11.10;99.90
5779;DHT22;2916;49.798;10.022;2023-01-05T11:15:20;11.10;99.90
5779;DHT22;2916;49.798;10.022;2023-01-05T11:17:47;11.20;99.90
5779;DHT22;2916;49.798;10.022;2023-01-05T11:20:17;11.20;99.90
5779;DHT22;2916;49.798;10.022;2023-01-05T11:22:44;11.10;99.90
5779;DHT22;2916;49.798;10.022;2023-01-05T11:25:22;11.20;99.90
5779;DHT22;2916;49.798;10.022;2023-01-05T11:28:13;11.20;99.90
5779;DHT22;2916;49.798;10.022;2023-01-05T11:30:47;11.20;99.90
5779;DHT22;2916;49.798;10.022;2023-01-05T11:33:23;11.30;99.90
5779;DHT22;2916;49.798;10.022;2023-01-05T11:35:52;11.30;99.90
5779;DHT22;2916;49.798;10.022;2023-01-05T11:38:22;11.30;99.90
5779;DHT22;2916;49.798;10.022;2023-01-05T11:40:50;11.30;99.90
5779;DHT22;2916;49.798;10.022;2023-01-05T11:43:19;11.30;99.90
5779;DHT22;2916;49.798;10.022;2023-01-05T11:45:49;11.30;99.90
5779;DHT22;2916;49.798;10.022;2023-01-05T11:48:19;11.30;99.90
5779;DHT22;2916;49.798;10.022;2023-01-05T11:50:50;11.20;99.90
5779;DHT22;2916;49.798;10.022;2023-01-05T11:53:26;11.20;99.90
5779;DHT22;2916;49.798;10.022;2023-01-05T11:56:02;11.30;99.90
5779;DHT22;2916;49.798;10.022;2023-01-05T11:58:31;11.20;99.90
5779;DHT22;2916;49.798;10.022;2023-01-05T12:01:12;11.20;99.90
5779;DHT22;2916;49.798;10.022;2023-01-05T12:03:56;11.20;99.90
5779;DHT22;2916;49.798;10.022;2023-01-05T12:06:46;11.20;99.90
5779;DHT22;2916;49.798;10.022;2023-01-05T12:09:22;11.20;99.90
5779;DHT22;2916;49.798;10.022;2023-01-05T12:11:58;11.20;99.90
5779;DHT22;2916;49.798;10.022;2023-01-05T12:14:42;11.20;99.90
5779;DHT22;2916;49.798;10.022;2023-01-05T12:17:14;11.20;99.90
5779;DHT22;2916;49.798;10.022;2023-01-05T12:19:59;11.20;99.90
5779;DHT22;2916;49.798;10.022;2023-01-05T12:22:59;11.30;99.90
5779;DHT22;2916;49.798;10.022;2023-01-05T12:25:41;11.30;99.90
5779;DHT22;2916;49.798;10.022;2023-01-05T12:28:40;11.30;99.90
5779;DHT22;2916;49.798;10.022;2023-01-05T12:31:22;11.20;99.90
5779;DHT22;2916;49.798;10.022;2023-01-05T12:34:05;11.30;99.90
5779;DHT22;2916;49.798;10.022;2023-01-05T12:36:45;11.20;99.90
5779;DHT22;2916;49.798;10.022;2023-01-05T12:39:42;11.20;99.90
5779;DHT22;2916;49.798;10.022;2023-01-05T12:42:31;11.20;99.90
5779;DHT22;2916;49.798;10.022;2023-01-05T12:45:20;11.20;99.90
5779;DHT22;2916;49.798;10.022;2023-01-05T12:47:55;11.20;99.90
5779;DHT22;2916;49.798;10.022;2023-01-05T12:50:28;11.30;99.90
5779;DHT22;2916;49.798;10.022;2023-01-05T12:53:01;11.30;99.90
5779;DHT22;2916;49.798;10.022;2023-01-05T12:55:36;11.30;99.90
5779;DHT22;2916;49.798;10.022;2023-01-05T12:58:13;11.30;99.90
5779;DHT22;2916;49.798;10.022;2023-01-05T13:00:41;11.40;99.90
5779;DHT22;2916;49.798;10.022;2023-01-05T13:03:16;11.40;99.90
5779;DHT22;2916;49.798;10.022;2023-01-05T13:05:50;11.30;99.90
5779;DHT22;2916;49.798;10.022;2023-01-05T13:08:24;11.40;99.90
5779;DHT22;2916;49.798;10.022;2023-01-05T13:10:56;11.50;99.90
5779;DHT22;2916;49.798;10.022;2023-01-05T13:13:30;11.40;99.90
5779;DHT22;2916;49.798;10.022;2023-01-05T13:16:07;11.50;99.90
5779;DHT22;2916;49.798;10.022;2023-01-05T13:18:38;11.40;99.90
5779;DHT22;2916;49.798;10.022;2023-01-05T13:21:07;11.50;99.90
5779;DHT22;2916;49.798;10.022;2023-01-05T13:23:38;11.50;99.90
5779;DHT22;2916;49.798;10.022;2023-01-05T13:26:10;11.50;99.90
5779;DHT22;2916;49.798;10.022;2023-01-05T13:28:40;11.50;99.90
5779;DHT22;2916;49.798;10.022;2023-01-05T13:34:53;11.50;99.90
5779;DHT22;2916;49.798;10.022;2023-01-05T13:40:43;11.50;99.90
5779;DHT22;2916;49.798;10.022;2023-01-05T13:46:21;11.50;99.90
5779;DHT22;2916;49.798;10.022;2023-01-05T13:49:09;11.50;99.90
5779;DHT22;2916;49.798;10.022;2023-01-05T13:51:50;11.50;99.90
5779;DHT22;2916;49.798;10.022;2023-01-05T13:54:20;11.50;99.90
5779;DHT22;2916;49.798;10.022;2023-01-05T13:56:48;11.50;99.90
5779;DHT22;2916;49.798;10.022;2023-01-05T13:59:24;11.60;99.90
5779;DHT22;2916;49.798;10.022;2023-01-05T14:01:54;11.50;99.90
5779;DHT22;2916;49.798;10.022;2023-01-05T14:04:27;11.60;99.90
5779;DHT22;2916;49.798;10.022;2023-01-05T14:06:57;11.50;99.90
5779;DHT22;2916;49.798;10.022;2023-01-05T14:09:28;11.60;99.90
5779;DHT22;2916;49.798;10.022;2023-01-05T14:12:25;11.60;99.90
5779;DHT22;2916;49.798;10.022;2023-01-05T14:15:01;11.60;99.90
5779;DHT22;2916;49.798;10.022;2023-01-05T14:17:50;11.60;99.90
5779;DHT22;2916;49.798;10.022;2023-01-05T14:20:35;11.60;99.90
5779;DHT22;2916;49.798;10.022;2023-01-05T14:26:10;11.60;99.90
5779;DHT22;2916;49.798;10.022;2023-01-05T14:28:42;11.60;99.90
5779;DHT22;2916;49.798;10.022;2023-01-05T14:31:34;11.60;99.90
5779;DHT22;2916;49.798;10.022;2023-01-05T14:34:05;11.60;99.90
5779;DHT22;2916;49.798;10.022;2023-01-05T14:36:36;11.60;99.90
5779;DHT22;2916;49.798;10.022;2023-01-05T14:39:06;11.50;99.90
5779;DHT22;2916;49.798;10.022;2023-01-05T14:41:33;11.60;99.90
5779;DHT22;2916;49.798;10.022;2023-01-05T14:44:02;11.60;99.90
5779;DHT22;2916;49.798;10.022;2023-01-05T14:46:44;11.60;99.90
5779;DHT22;2916;49.798;10.022;2023-01-05T14:49:20;11.60;99.90
5779;DHT22;2916;49.798;10.022;2023-01-05T14:51:52;11.60;99.90
5779;DHT22;2916;49.798;10.022;2023-01-05T14:54:35;11.50;99.90
5779;DHT22;2916;49.798;10.022;2023-01-05T14:57:37;11.50;99.90
5779;DHT22;2916;49.798;10.022;2023-01-05T15:00:11;11.50;99.90
5779;DHT22;2916;49.798;10.022;2023-01-05T15:02:47;11.50;99.90
5779;DHT22;2916;49.798;10.022;2023-01-05T15:05:18;11.50;99.90
5779;DHT22;2916;49.798;10.022;2023-01-05T15:07:53;11.50;99.90
5779;DHT22;2916;49.798;10.022;2023-01-05T15:13:38;11.50;99.90
5779;DHT22;2916;49.798;10.022;2023-01-05T15:16:34;11.40;99.90
5779;DHT22;2916;49.798;10.022;2023-01-05T15:19:22;11.30;99.90
5779;DHT22;2916;49.798;10.022;2023-01-05T15:22:17;11.40;99.90
5779;DHT22;2916;49.798;10.022;2023-01-05T15:25:03;11.30;99.90
5779;DHT22;2916;49.798;10.022;2023-01-05T15:27:53;11.30;99.90
5779;DHT22;2916;49.798;10.022;2023-01-05T15:30:41;11.20;99.90
5779;DHT22;2916;49.798;10.022;2023-01-05T15:33:14;11.20;99.90
5779;DHT22;2916;49.798;10.022;2023-01-05T15:35:46;11.20;99.90
5779;DHT22;2916;49.798;10.022;2023-01-05T15:38:21;11.20;99.90
5779;DHT22;2916;49.798;10.022;2023-01-05T15:40:56;11.20;99.90
5779;DHT22;2916;49.798;10.022;2023-01-05T15:43:24;11.10;99.90
5779;DHT22;2916;49.798;10.022;2023-01-05T15:45:51;11.10;99.90
5779;DHT22;2916;49.798;10.022;2023-01-05T15:48:25;11.10;99.90
5779;DHT22;2916;49.798;10.022;2023-01-05T15:50:55;11.00;99.90
5779;DHT22;2916;49.798;10.022;2023-01-05T15:53:26;11.00;99.90
5779;DHT22;2916;49.798;10.022;2023-01-05T15:55:54;11.00;99.90
5779;DHT22;2916;49.798;10.022;2023-01-05T15:58:21;11.00;99.90
5779;DHT22;2916;49.798;10.022;2023-01-05T16:01:05;11.00;99.90
5779;DHT22;2916;49.798;10.022;2023-01-05T16:03:34;11.00;99.90
5779;DHT22;2916;49.798;10.022;2023-01-05T16:06:03;10.90;99.90
5779;DHT22;2916;49.798;10.022;2023-01-05T16:08:35;10.90;99.90
5779;DHT22;2916;49.798;10.022;2023-01-05T16:11:07;10.90;99.90
5779;DHT22;2916;49.798;10.022;2023-01-05T16:13:37;10.90;99.90
5779;DHT22;2916;49.798;10.022;2023-01-05T16:16:10;10.80;99.90
5779;DHT22;2916;49.798;10.022;2023-01-05T16:18:41;10.80;99.90
5779;DHT22;2916;49.798;10.022;2023-01-05T16:21:12;10.70;99.90
5779;DHT22;2916;49.798;10.022;2023-01-05T16:23:44;10.70;99.90
5779;DHT22;2916;49.798;10.022;2023-01-05T16:26:16;10.60;99.90
5779;DHT22;2916;49.798;10.022;2023-01-05T16:28:43;10.60;99.90
5779;DHT22;2916;49.798;10.022;2023-01-05T16:31:24;10.50;99.90
5779;DHT22;2916;49.798;10.022;2023-01-05T16:34:01;10.40;99.90
5779;DHT22;2916;49.798;10.022;2023-01-05T16:36:28;10.40;99.90